Time;durP1;ratioP1;P1;durP2;ratioP2;P2;SDS_P1;SDS_P2;PMS_P1;PMS_P2;Temp;Humidity;BMP_temperature;BMP_pressure;BME280_temperature;BME280_humidity;BME280_pressure;Samples;Min_cycle;Max_cycle;Signal;HPM_P1;HPM_P2
2022/12/23 05:01:34;;;;;;;1.58;0.50;;;12.20;99.90;;;;;;5419144;23;20038;-69
2022/12/23 05:04:00;;;;;;;1.87;0.50;;;12.20;99.90;;;;;;4996201;28;20101;-69
2022/12/23 05:06:25;;;;;;;0.60;0.40;;;12.30;99.90;;;;;;4995287;28;20022;-69
2022/12/23 05:08:51;;;;;;;1.37;0.53;;;12.30;99.90;;;;;;4996429;28;20081;-68
2022/12/23 05:11:16;;;;;;;0.80;0.63;;;12.30;99.90;;;;;;4986076;28;20081;-69
2022/12/23 05:13:42;;;;;;;1.03;0.53;;;12.30;99.90;;;;;;4977453;28;20380;-69
2022/12/23 05:16:07;;;;;;;1.80;0.70;;;12.30;99.90;;;;;;4976659;28;20034;-69
2022/12/23 05:18:33;;;;;;;1.33;0.50;;;12.30;99.90;;;;;;4976476;28;20027;-69
2022/12/23 05:20:58;;;;;;;1.77;0.57;;;12.30;99.90;;;;;;4976566;28;20473;-69
2022/12/23 05:23:24;;;;;;;2.87;0.73;;;12.20;99.90;;;;;;4975769;28;20054;-69
2022/12/23 05:25:54;;;;;;;2.70;0.63;;;12.30;99.90;;;;;;4976635;28;20026;-69
2022/12/23 05:28:21;;;;;;;2.65;0.60;;;12.20;99.90;;;;;;4975534;28;20379;-68
2022/12/23 05:30:47;;;;;;;0.50;0.40;;;12.30;99.90;;;;;;4975456;28;20096;-69
2022/12/23 05:33:13;;;;;;;0.77;0.60;;;12.30;99.90;;;;;;4976228;28;20539;-69
2022/12/23 05:35:39;;;;;;;2.03;0.40;;;12.20;99.90;;;;;;4976348;28;20031;-67
2022/12/23 05:38:04;;;;;;;2.90;0.60;;;12.20;99.90;;;;;;4976198;28;20106;-69
2022/12/23 05:40:30;;;;;;;1.37;0.80;;;12.20;99.90;;;;;;4976557;28;20038;-68
2022/12/23 05:42:55;;;;;;;1.77;0.87;;;12.30;99.90;;;;;;4975109;28;20086;-68
2022/12/23 05:45:21;;;;;;;1.47;0.57;;;12.20;99.90;;;;;;4976106;28;20023;-69
2022/12/23 05:47:47;;;;;;;3.53;0.80;;;12.20;99.90;;;;;;4976058;28;20030;-68
2022/12/23 05:50:12;;;;;;;0.77;0.70;;;12.10;99.90;;;;;;4976061;28;20058;-68
2022/12/23 05:52:38;;;;;;;2.73;0.90;;;12.20;99.90;;;;;;4974903;28;20050;-69
2022/12/23 05:55:04;;;;;;;0.73;0.60;;;12.10;99.90;;;;;;4975824;28;20369;-69
2022/12/23 05:57:31;;;;;;;;;;;12.10;99.90;;;;;;4976536;28;20074;-69
2022/12/23 05:59:56;;;;;;;1.80;0.90;;;12.10;99.90;;;;;;4976180;28;20282;-68
2022/12/23 06:02:22;;;;;;;3.55;1.05;;;12.10;99.90;;;;;;4980782;28;20089;-69
2022/12/23 06:04:48;;;;;;;2.08;0.80;;;12.10;99.90;;;;;;5010229;28;20482;-68
2022/12/23 06:07:15;;;;;;;1.60;0.75;;;12.10;99.90;;;;;;4995334;28;20026;-68
2022/12/23 06:09:40;;;;;;;2.38;0.70;;;12.10;99.90;;;;;;4995367;28;20026;-68
2022/12/23 06:12:06;;;;;;;1.60;0.63;;;12.10;99.90;;;;;;4990860;28;20027;-68
2022/12/23 06:14:31;;;;;;;2.00;0.77;;;12.20;99.90;;;;;;4974444;28;20121;-69
2022/12/23 06:16:57;;;;;;;4.27;1.00;;;12.30;99.90;;;;;;4975932;28;20110;-69
2022/12/23 06:19:23;;;;;;;0.88;0.60;;;12.20;99.90;;;;;;4973932;28;20058;-67
2022/12/23 06:21:48;;;;;;;6.70;0.80;;;12.10;99.90;;;;;;4975739;28;20411;-69
2022/12/23 06:24:14;;;;;;;1.33;0.93;;;12.20;99.90;;;;;;4974178;28;20027;-68
2022/12/23 06:26:40;;;;;;;1.93;0.73;;;12.20;99.90;;;;;;4974919;28;20031;-69
2022/12/23 06:29:06;;;;;;;1.15;0.77;;;12.20;99.90;;;;;;4975638;28;20041;-69
2022/12/23 06:31:31;;;;;;;1.47;0.90;;;12.10;99.90;;;;;;4980585;28;20114;-69
2022/12/23 06:33:57;;;;;;;2.40;1.10;;;12.10;99.90;;;;;;4984864;28;20065;-68
2022/12/23 06:36:22;;;;;;;2.70;1.00;;;12.10;99.90;;;;;;4974461;28;20042;-69
2022/12/23 06:38:48;;;;;;;2.70;1.20;;;12.10;99.90;;;;;;4975739;28;20034;-69
2022/12/23 06:41:14;;;;;;;1.70;1.00;;;12.10;99.90;;;;;;4977668;28;20054;-70
2022/12/23 06:43:39;;;;;;;1.70;0.88;;;12.10;99.90;;;;;;4975876;28;20031;-70
2022/12/23 06:46:05;;;;;;;1.90;1.13;;;11.90;99.90;;;;;;4976276;28;20068;-70
2022/12/23 06:48:30;;;;;;;1.50;0.90;;;12.00;99.90;;;;;;4975144;28;20068;-70
2022/12/23 06:50:56;;;;;;;2.40;1.10;;;12.00;99.90;;;;;;4975042;28;20078;-69
2022/12/23 06:53:21;;;;;;;2.00;1.10;;;12.00;99.90;;;;;;4974735;28;20052;-70
2022/12/23 06:55:47;;;;;;;2.40;1.10;;;12.10;99.90;;;;;;4975256;28;20027;-70
2022/12/23 06:58:12;;;;;;;2.07;1.00;;;12.00;99.90;;;;;;4975127;28;20082;-70
2022/12/23 07:00:38;;;;;;;1.53;1.27;;;12.00;99.90;;;;;;4974916;28;20519;-69
2022/12/23 07:03:03;;;;;;;2.07;1.30;;;12.00;99.90;;;;;;4974855;28;20115;-71
2022/12/23 07:05:29;;;;;;;3.50;1.13;;;12.10;99.90;;;;;;4989809;28;20029;-70
2022/12/23 07:07:57;;;;;;;1.90;1.10;;;12.10;99.90;;;;;;4975016;28;20133;-71
2022/12/23 07:10:22;;;;;;;2.38;1.17;;;12.10;99.90;;;;;;4973688;28;20038;-72
2022/12/23 07:12:48;;;;;;;1.90;1.20;;;12.10;99.90;;;;;;4974683;28;20396;-71
2022/12/23 07:15:13;;;;;;;1.80;1.37;;;12.20;99.90;;;;;;4973723;28;20475;-70
2022/12/23 07:17:39;;;;;;;3.47;1.37;;;12.20;99.90;;;;;;4974502;28;20495;-69
2022/12/23 07:20:05;;;;;;;2.17;1.30;;;12.20;99.90;;;;;;4975276;28;20050;-68
2022/12/23 07:22:31;;;;;;;2.70;1.10;;;12.20;99.90;;;;;;4974711;28;20023;-70
2022/12/23 07:24:56;;;;;;;1.97;1.07;;;12.20;99.90;;;;;;4975827;28;20109;-75
2022/12/23 07:27:22;;;;;;;2.40;1.40;;;12.20;99.90;;;;;;4974671;28;20475;-70
2022/12/23 07:29:47;;;;;;;3.37;1.17;;;12.20;99.90;;;;;;4973262;28;20425;-73
2022/12/23 07:32:13;;;;;;;4.90;1.07;;;12.10;99.90;;;;;;4974679;28;20031;-70
2022/12/23 07:34:38;;;;;;;2.27;1.00;;;12.00;99.90;;;;;;4973820;28;20027;-72
2022/12/23 07:37:18;;;;;;;4.50;2.50;;;12.00;99.90;;;;;;4972912;28;20031;-72
2022/12/23 07:39:56;;;;;;;2.85;1.10;;;11.90;99.90;;;;;;4975635;28;20121;-71
2022/12/23 07:42:22;;;;;;;2.78;1.25;;;11.90;99.90;;;;;;4972155;28;20101;-71
2022/12/23 07:44:47;;;;;;;3.13;1.30;;;11.90;99.90;;;;;;4974280;28;20031;-71
2022/12/23 07:47:14;;;;;;;4.03;2.10;;;11.90;99.90;;;;;;4972469;28;20027;-71
2022/12/23 07:49:39;;;;;;;1.55;1.27;;;11.90;99.90;;;;;;4972696;28;20037;-71
2022/12/23 07:52:05;;;;;;;4.57;1.50;;;11.90;99.90;;;;;;4972975;28;20478;-72
2022/12/23 07:54:30;;;;;;;2.73;1.33;;;11.80;99.90;;;;;;4972769;28;20514;-72
2022/12/23 07:56:57;;;;;;;1.63;1.33;;;11.70;99.90;;;;;;4974164;28;20035;-71
2022/12/23 07:59:25;;;;;;;3.92;1.40;;;11.80;99.90;;;;;;4972993;28;20082;-74
2022/12/23 08:01:51;;;;;;;1.98;1.52;;;11.90;99.90;;;;;;4972114;28;20038;-70
2022/12/23 08:04:17;;;;;;;3.70;1.83;;;11.90;99.90;;;;;;4955015;28;20079;-70
2022/12/23 08:06:42;;;;;;;2.90;1.70;;;11.90;99.90;;;;;;4956949;28;20170;-71
2022/12/23 08:09:08;;;;;;;2.87;1.37;;;11.90;99.90;;;;;;4974371;28;20050;-69
2022/12/23 08:11:34;;;;;;;4.63;1.27;;;11.90;99.90;;;;;;4974350;28;20510;-69
2022/12/23 08:13:59;;;;;;;3.05;1.55;;;11.90;99.90;;;;;;4974525;28;20022;-69
2022/12/23 08:16:25;;;;;;;1.60;1.00;;;12.00;99.90;;;;;;4975155;28;20049;-70
2022/12/23 08:18:50;;;;;;;1.60;0.80;;;12.00;99.90;;;;;;4977012;28;20053;-69
2022/12/23 08:21:18;;;;;;;2.60;1.30;;;12.10;99.90;;;;;;4977385;28;20027;-70
2022/12/23 08:23:46;;;;;;;3.83;1.20;;;12.00;99.90;;;;;;4974595;28;20066;-68
2022/12/23 08:26:17;;;;;;;2.10;1.00;;;12.10;99.90;;;;;;4974489;28;20033;-69
2022/12/23 08:28:44;;;;;;;16.52;9.82;;;12.10;99.90;;;;;;4973071;28;20026;-67
2022/12/23 08:31:24;;;;;;;3.50;1.30;;;12.00;99.90;;;;;;4972986;28;20027;-70
2022/12/23 08:33:52;;;;;;;4.22;1.25;;;12.00;99.90;;;;;;4969938;28;20031;-70
2022/12/23 08:36:20;;;;;;;3.58;0.80;;;12.00;99.90;;;;;;4974569;28;20026;-69
2022/12/23 08:38:46;;;;;;;1.25;0.80;;;12.10;99.90;;;;;;4975159;28;20050;-70
2022/12/23 08:41:16;;;;;;;2.47;0.95;;;12.10;99.90;;;;;;4973280;28;20050;-70
2022/12/23 08:43:42;;;;;;;3.45;1.08;;;12.20;99.90;;;;;;4972851;28;20035;-69
2022/12/23 08:46:08;;;;;;;5.27;1.27;;;12.30;99.90;;;;;;4972763;28;20026;-69
2022/12/23 08:48:34;;;;;;;1.95;0.80;;;12.20;99.90;;;;;;4974655;28;20031;-70
2022/12/23 08:51:08;;;;;;;2.85;1.00;;;12.30;99.90;;;;;;4978410;28;20042;-69
2022/12/23 08:53:36;;;;;;;2.72;1.00;;;12.30;99.90;;;;;;4980871;28;20066;-71
2022/12/23 08:56:08;;;;;;;1.67;1.15;;;12.20;99.90;;;;;;4979249;28;20027;-70
2022/12/23 08:58:42;;;;;;;3.72;1.10;;;12.20;99.90;;;;;;4978578;28;20094;-70
2022/12/23 09:01:10;;;;;;;3.75;1.20;;;12.30;99.90;;;;;;4976048;28;20054;-69
2022/12/23 09:03:37;;;;;;;2.47;1.05;;;12.20;99.90;;;;;;4976934;28;20030;-70
2022/12/23 09:06:07;;;;;;;1.30;0.80;;;12.20;99.90;;;;;;4977253;28;20065;-69
2022/12/23 09:08:33;;;;;;;3.38;1.00;;;12.10;99.90;;;;;;4975558;28;20031;-70
2022/12/23 09:10:59;;;;;;;1.60;1.00;;;12.30;99.90;;;;;;4976981;28;20019;-70
2022/12/23 09:13:26;;;;;;;2.85;1.35;;;12.30;99.90;;;;;;4975527;28;20045;-69
2022/12/23 09:15:52;;;;;;;5.35;3.40;;;12.50;99.90;;;;;;4975309;28;20413;-70
2022/12/23 09:18:18;;;;;;;4.20;1.67;;;12.50;99.90;;;;;;4976637;28;20034;-71
2022/12/23 09:20:43;;;;;;;2.63;1.50;;;12.50;99.90;;;;;;4976641;28;20404;-70
2022/12/23 09:23:09;;;;;;;2.73;1.30;;;12.50;99.90;;;;;;4976980;28;20530;-70
2022/12/23 09:25:35;;;;;;;2.70;1.00;;;12.60;99.90;;;;;;4976314;28;20038;-67
2022/12/23 09:28:01;;;;;;;1.23;1.05;;;12.60;99.90;;;;;;4976413;28;20554;-68
2022/12/23 09:30:27;;;;;;;1.73;1.02;;;12.60;99.90;;;;;;4976348;28;20066;-67
2022/12/23 09:32:52;;;;;;;2.35;1.30;;;12.60;99.90;;;;;;4976208;28;20026;-67
2022/12/23 09:35:18;;;;;;;2.80;1.30;;;12.70;99.90;;;;;;4974572;28;20031;-68
2022/12/23 09:37:43;;;;;;;2.77;1.30;;;12.60;99.90;;;;;;4976222;28;20031;-68
2022/12/23 09:40:14;;;;;;;2.60;1.43;;;12.50;99.90;;;;;;4975516;28;20033;-69
2022/12/23 09:43:17;;;;;;;2.08;1.40;;;12.50;99.90;;;;;;4975756;28;20364;-69
2022/12/23 09:46:00;;;;;;;3.08;1.52;;;12.50;99.90;;;;;;4974526;28;20041;-67
2022/12/23 09:48:31;;;;;;;2.53;1.75;;;12.50;99.90;;;;;;4971222;28;20074;-68
2022/12/23 09:50:57;;;;;;;2.55;1.58;;;12.50;99.90;;;;;;4956436;28;20552;-70
2022/12/23 09:53:39;;;;;;;3.92;1.63;;;12.50;99.90;;;;;;4956435;28;20031;-70
2022/12/23 09:56:29;;;;;;;1.80;1.20;;;12.60;99.90;;;;;;4956497;29;20035;-69
2022/12/23 09:59:13;;;;;;;4.45;1.40;;;12.60;99.90;;;;;;4972926;28;20051;-67
2022/12/23 10:02:18;;;;;;;2.38;1.48;;;12.60;99.90;;;;;;4955798;28;20038;-67
2022/12/23 10:05:02;;;;;;;4.60;2.58;;;12.60;99.90;;;;;;4956324;29;20472;-69
2022/12/23 10:07:33;;;;;;;2.25;1.50;;;12.60;99.90;;;;;;4963152;28;20126;-67
2022/12/23 10:10:06;;;;;;;5.63;3.40;;;12.60;99.90;;;;;;4974961;28;20023;-68
2022/12/23 10:12:39;;;;;;;4.05;1.38;;;12.60;99.90;;;;;;4974854;28;20062;-69
2022/12/23 10:15:24;;;;;;;2.53;1.75;;;12.50;99.90;;;;;;4975765;28;20030;-69
2022/12/23 10:17:54;;;;;;;2.97;1.75;;;12.50;99.90;;;;;;4975779;28;20033;-69
2022/12/23 10:20:52;;;;;;;2.55;1.50;;;12.60;99.90;;;;;;4975519;28;20043;-68
2022/12/23 10:23:31;;;;;;;3.05;1.17;;;12.60;99.90;;;;;;4973661;28;20419;-68
2022/12/23 10:25:56;;;;;;;2.60;1.50;;;12.60;99.90;;;;;;4975857;28;20435;-70
2022/12/23 10:28:22;;;;;;;1.50;1.15;;;12.70;99.90;;;;;;4977093;28;20038;-71
2022/12/23 10:31:04;;;;;;;6.72;4.30;;;12.70;99.90;;;;;;4978608;28;20031;-67
2022/12/23 10:33:45;;;;;;;4.50;3.33;;;12.80;99.90;;;;;;4988829;28;20034;-70
2022/12/23 10:36:13;;;;;;;2.70;1.40;;;12.80;99.90;;;;;;4994877;28;20034;-70
2022/12/23 10:38:52;;;;;;;3.20;1.38;;;12.80;99.90;;;;;;5009642;28;20523;-70
2022/12/23 10:41:31;;;;;;;1.90;1.20;;;12.80;99.90;;;;;;5009682;28;20026;-70
2022/12/23 10:44:04;;;;;;;2.58;0.98;;;12.70;99.90;;;;;;4996040;28;20026;-70
2022/12/23 10:46:55;;;;;;;3.45;1.58;;;12.80;99.90;;;;;;4996655;28;20383;-71
2022/12/23 10:49:47;;;;;;;2.72;1.67;;;12.80;99.90;;;;;;4986181;28;20034;-70
2022/12/23 10:52:24;;;;;;;4.55;1.20;;;12.80;99.90;;;;;;4974443;28;20030;-68
2022/12/23 10:54:50;;;;;;;;;;;12.80;99.90;;;;;;4975480;28;20034;-70
2022/12/23 10:57:17;;;;;;;1.88;1.27;;;12.90;99.90;;;;;;4973332;28;19906;-72
2022/12/23 10:59:43;;;;;;;1.90;1.20;;;12.90;99.90;;;;;;4974279;28;20027;-72
2022/12/23 11:02:11;;;;;;;3.17;1.20;;;13.00;99.90;;;;;;4974332;28;20041;-71
2022/12/23 11:04:43;;;;;;;3.22;1.30;;;13.00;99.90;;;;;;4956647;28;20117;-73
2022/12/23 11:07:23;;;;;;;1.40;0.98;;;13.00;99.90;;;;;;4972936;28;20031;-73
2022/12/23 11:10:03;;;;;;;2.70;1.00;;;12.90;99.90;;;;;;4953872;29;20034;-73
2022/12/23 11:12:44;;;;;;;2.78;1.42;;;13.00;99.90;;;;;;4969200;28;20027;-74
2022/12/23 11:15:44;;;;;;;2.38;1.10;;;13.00;99.90;;;;;;4954035;29;20466;-72
2022/12/23 11:18:13;;;;;;;2.83;0.88;;;13.00;99.90;;;;;;4970156;28;20473;-73
2022/12/23 11:20:41;;;;;;;3.13;0.90;;;12.90;99.90;;;;;;4953865;28;20023;-71
2022/12/23 11:23:29;;;;;;;2.83;1.25;;;12.90;99.90;;;;;;4973737;28;20034;-72
2022/12/23 11:26:12;;;;;;;4.60;1.50;;;13.00;99.90;;;;;;4974512;28;20085;-72
2022/12/23 11:28:47;;;;;;;3.40;0.90;;;13.00;99.90;;;;;;4974866;28;20023;-74
2022/12/23 11:31:13;;;;;;;1.98;1.00;;;13.00;99.90;;;;;;4972773;28;20508;-73
2022/12/23 11:33:52;;;;;;;3.42;0.90;;;12.90;99.90;;;;;;4972392;28;20041;-70
2022/12/23 11:36:22;;;;;;;1.10;0.90;;;12.90;99.90;;;;;;4974127;28;20539;-66
2022/12/23 11:39:06;;;;;;;1.45;0.90;;;12.90;99.90;;;;;;4974764;28;20388;-70
2022/12/23 11:41:44;;;;;;;3.95;1.25;;;12.90;99.90;;;;;;4973900;28;20022;-72
2022/12/23 11:44:41;;;;;;;2.85;1.10;;;12.90;99.90;;;;;;4972741;28;20023;-71
2022/12/23 11:47:22;;;;;;;2.60;0.90;;;12.80;99.90;;;;;;4973375;28;20035;-70
2022/12/23 11:49:50;;;;;;;2.45;0.98;;;12.80;99.90;;;;;;4972292;28;20089;-70
2022/12/23 11:52:34;;;;;;;2.97;1.17;;;12.90;99.90;;;;;;4973433;28;20117;-71
2022/12/23 11:55:02;;;;;;;1.33;0.90;;;12.90;99.90;;;;;;4972571;28;20018;-71
2022/12/23 11:57:37;;;;;;;10.27;1.40;;;13.00;99.90;;;;;;4973961;28;20025;-72
2022/12/23 12:00:15;;;;;;;2.65;0.90;;;13.00;99.90;;;;;;4972708;28;20135;-71
2022/12/23 12:02:44;;;;;;;3.15;0.90;;;13.00;99.90;;;;;;4977865;28;20444;-68
2022/12/23 12:05:21;;;;;;;4.68;1.60;;;13.00;99.90;;;;;;4976165;28;20031;-68
2022/12/23 12:07:47;;;;;;;;;;;13.00;99.90;;;;;;4974308;28;20034;-68
2022/12/23 12:10:20;;;;;;;1.60;1.02;;;12.90;99.90;;;;;;4973423;28;19914;-69
2022/12/23 12:12:52;;;;;;;4.15;1.50;;;12.90;99.90;;;;;;4973959;28;20070;-72
2022/12/23 12:15:42;;;;;;;2.88;1.63;;;12.90;99.90;;;;;;4971915;28;20089;-69
2022/12/23 12:18:13;;;;;;;2.72;1.40;;;12.90;99.90;;;;;;4962974;28;20452;-70
2022/12/23 12:20:44;;;;;;;3.17;1.60;;;13.00;99.90;;;;;;4972443;28;20476;-69
2022/12/23 12:23:29;;;;;;;3.38;1.83;;;12.80;99.90;;;;;;4972330;28;20035;-69
2022/12/23 12:26:12;;;;;;;3.58;1.77;;;12.90;99.90;;;;;;4977514;28;20089;-69
2022/12/23 12:28:41;;;;;;;1.33;1.00;;;13.00;99.90;;;;;;4977560;28;20082;-70
2022/12/23 12:31:22;;;;;;;3.67;1.80;;;13.00;99.90;;;;;;4975359;28;20031;-69
2022/12/23 12:34:18;;;;;;;3.35;1.35;;;13.10;99.90;;;;;;4969472;28;20435;-68
2022/12/23 12:37:09;;;;;;;1.48;1.20;;;13.00;99.90;;;;;;4975799;28;20464;-68
2022/12/23 12:39:40;;;;;;;2.05;1.40;;;13.10;99.90;;;;;;4975544;28;20027;-70
2022/12/23 12:42:09;;;;;;;2.53;1.30;;;13.10;99.90;;;;;;4958029;28;20062;-69
2022/12/23 12:44:40;;;;;;;2.65;1.20;;;13.10;99.90;;;;;;4958302;29;20082;-69
2022/12/23 12:47:12;;;;;;;3.22;1.20;;;13.00;99.90;;;;;;4956218;29;20027;-68
2022/12/23 12:49:50;;;;;;;1.63;1.25;;;13.10;99.90;;;;;;4957530;29;20054;-68
2022/12/23 12:52:24;;;;;;;2.20;1.38;;;13.10;99.90;;;;;;4957455;28;20548;-68
2022/12/23 12:55:13;;;;;;;1.25;1.00;;;13.10;99.90;;;;;;4957669;28;20024;-68
2022/12/23 12:57:39;;;;;;;2.10;1.25;;;13.20;99.90;;;;;;4957572;29;20383;-69
2022/12/23 13:00:12;;;;;;;2.83;1.08;;;13.10;99.90;;;;;;4957473;29;20038;-69
2022/12/23 13:03:16;;;;;;;4.97;1.48;;;13.20;99.90;;;;;;4961120;28;20053;-69
2022/12/23 13:05:44;;;;;;;2.28;1.00;;;13.20;99.90;;;;;;4975517;28;20048;-71
2022/12/23 13:08:35;;;;;;;5.10;1.13;;;13.20;99.90;;;;;;4976726;28;20023;-70
2022/12/23 13:11:28;;;;;;;5.72;2.40;;;13.10;99.90;;;;;;4976568;28;20055;-70
2022/12/23 13:14:06;;;;;;;2.03;1.00;;;13.20;99.90;;;;;;4975094;28;20030;-71
2022/12/23 13:16:49;;;;;;;2.65;1.20;;;13.20;99.90;;;;;;4976197;28;20019;-71
2022/12/23 13:19:43;;;;;;;2.05;1.25;;;13.20;99.90;;;;;;4976083;28;20121;-70
2022/12/23 13:22:15;;;;;;;2.58;1.10;;;13.10;99.90;;;;;;4976156;28;20026;-68
2022/12/23 13:24:54;;;;;;;3.05;1.20;;;13.10;99.90;;;;;;4976487;28;20094;-67
2022/12/23 13:27:42;;;;;;;2.50;1.10;;;13.20;99.90;;;;;;4976194;28;20027;-67
2022/12/23 13:30:13;;;;;;;2.08;0.98;;;13.20;99.90;;;;;;4976351;28;20488;-68
2022/12/23 13:33:00;;;;;;;2.97;1.20;;;13.20;99.90;;;;;;4976312;28;20396;-67
2022/12/23 13:35:48;;;;;;;5.53;3.42;;;13.20;99.90;;;;;;4974660;28;20070;-70
2022/12/23 13:38:22;;;;;;;2.83;1.98;;;13.20;99.90;;;;;;4956668;29;20099;-68
2022/12/23 13:41:02;;;;;;;2.42;1.00;;;13.30;99.90;;;;;;4970207;28;20105;-71
2022/12/23 13:43:57;;;;;;;3.30;1.55;;;13.40;99.90;;;;;;4974734;28;20062;-69
2022/12/23 13:46:49;;;;;;;2.53;0.90;;;13.40;99.90;;;;;;4975898;28;20535;-69
2022/12/23 13:49:39;;;;;;;2.13;0.85;;;13.30;99.90;;;;;;4976011;28;20118;-69
2022/12/23 13:52:12;;;;;;;3.80;1.13;;;13.30;99.90;;;;;;4975451;28;20027;-68
2022/12/23 13:55:09;;;;;;;2.13;0.80;;;13.30;99.90;;;;;;4974333;28;20035;-67
2022/12/23 13:58:02;;;;;;;1.50;0.90;;;13.40;99.90;;;;;;4971746;28;20022;-70
2022/12/23 14:00:31;;;;;;;10.73;1.02;;;13.30;99.90;;;;;;4975175;28;20467;-70
2022/12/23 14:02:58;;;;;;;2.33;0.80;;;13.30;99.90;;;;;;4973459;28;20457;-70
2022/12/23 14:05:34;;;;;;;1.85;1.33;;;13.30;99.90;;;;;;4963521;28;20031;-71
2022/12/23 14:08:07;;;;;;;2.33;1.00;;;13.30;99.90;;;;;;4955215;29;20028;-70
2022/12/23 14:10:34;;;;;;;1.85;0.88;;;13.30;99.90;;;;;;4954988;28;20114;-71
2022/12/23 14:13:06;;;;;;;1.40;0.77;;;13.30;99.90;;;;;;4955986;28;20034;-72
2022/12/23 14:15:53;;;;;;;2.90;0.98;;;13.20;99.90;;;;;;4958249;28;20023;-67
2022/12/23 14:18:46;;;;;;;2.67;0.88;;;13.20;99.90;;;;;;4975636;28;20023;-68
2022/12/23 14:21:33;;;;;;;6.30;1.10;;;13.20;99.90;;;;;;4975030;28;20115;-72
2022/12/23 14:24:22;;;;;;;1.30;0.90;;;13.20;99.90;;;;;;4975146;28;20034;-71
2022/12/23 14:27:12;;;;;;;1.00;0.60;;;13.20;99.90;;;;;;4975536;28;20043;-71
2022/12/23 14:30:06;;;;;;;2.13;0.95;;;13.30;99.90;;;;;;4960082;28;20027;-69
2022/12/23 14:32:42;;;;;;;1.67;0.70;;;13.30;99.90;;;;;;4967584;28;20559;-69
2022/12/23 14:35:19;;;;;;;1.73;0.80;;;13.30;99.90;;;;;;4955619;28;20019;-69
2022/12/23 14:38:14;;;;;;;2.85;0.80;;;13.30;99.90;;;;;;4959901;28;20030;-68
2022/12/23 14:40:42;;;;;;;1.85;1.13;;;13.30;99.90;;;;;;4953747;29;20050;-68
2022/12/23 14:43:49;;;;;;;2.55;0.93;;;13.30;99.90;;;;;;4953494;29;20114;-67
2022/12/23 14:46:32;;;;;;;2.20;1.05;;;13.30;99.90;;;;;;4936731;28;20432;-72
2022/12/23 14:48:58;;;;;;;3.75;0.88;;;13.30;99.90;;;;;;4937469;29;20027;-69
2022/12/23 14:51:30;;;;;;;1.80;0.90;;;13.30;99.90;;;;;;4953101;29;20054;-72
2022/12/23 14:53:58;;;;;;;2.17;1.00;;;13.40;99.90;;;;;;4952953;29;20050;-68
2022/12/23 14:56:42;;;;;;;2.33;0.80;;;13.40;99.90;;;;;;4953418;29;20027;-69
2022/12/23 14:59:21;;;;;;;1.38;1.00;;;13.40;99.90;;;;;;4953693;29;20035;-68
2022/12/23 15:02:00;;;;;;;1.95;1.10;;;13.40;99.90;;;;;;4937035;29;20031;-69
2022/12/23 15:04:35;;;;;;;3.65;1.17;;;13.50;99.90;;;;;;4933811;29;20135;-69
2022/12/23 15:07:05;;;;;;;2.42;0.80;;;13.50;99.90;;;;;;4933952;29;20027;-69
2022/12/23 15:09:49;;;;;;;1.55;0.80;;;13.40;99.90;;;;;;4952380;28;20026;-70
2022/12/23 15:12:24;;;;;;;1.63;0.98;;;13.50;99.90;;;;;;4933811;29;20035;-68
2022/12/23 15:14:53;;;;;;;2.05;1.00;;;13.50;99.90;;;;;;4934660;29;20059;-68
2022/12/23 15:17:27;;;;;;;3.28;1.00;;;13.50;99.90;;;;;;4964408;28;20037;-67
2022/12/23 15:20:00;;;;;;;1.85;0.90;;;13.60;99.90;;;;;;4970578;28;20057;-67
2022/12/23 15:22:29;;;;;;;2.53;0.98;;;13.50;99.90;;;;;;4965738;28;20442;-67
2022/12/23 15:24:55;;;;;;;2.30;0.85;;;13.50;99.90;;;;;;4974391;28;20042;-67
2022/12/23 15:27:21;;;;;;;2.07;0.90;;;13.50;99.90;;;;;;4974818;28;20026;-66
2022/12/23 15:29:49;;;;;;;1.60;0.90;;;13.60;99.90;;;;;;4974660;28;20384;-68
2022/12/23 15:32:18;;;;;;;1.63;0.68;;;13.60;99.90;;;;;;4973817;28;20547;-73
2022/12/23 15:34:47;;;;;;;1.33;0.70;;;13.60;99.90;;;;;;4973475;28;20507;-73
2022/12/23 15:37:16;;;;;;;1.40;0.80;;;13.60;99.90;;;;;;4973222;28;20026;-74
2022/12/23 15:39:43;;;;;;;2.05;0.85;;;13.60;99.90;;;;;;4974347;28;20035;-73
2022/12/23 15:42:27;;;;;;;2.00;0.85;;;13.60;99.90;;;;;;4974071;28;20029;-75
2022/12/23 15:44:53;;;;;;;2.67;1.00;;;13.60;99.90;;;;;;4973156;28;20041;-74
2022/12/23 15:47:29;;;;;;;2.17;0.73;;;13.70;99.90;;;;;;4973629;28;20027;-74
2022/12/23 15:49:57;;;;;;;3.20;1.10;;;13.60;99.90;;;;;;4973982;28;20046;-75
2022/12/23 15:52:23;;;;;;;2.38;0.98;;;13.70;99.90;;;;;;4973842;28;20046;-75
2022/12/23 15:54:56;;;;;;;2.25;0.98;;;13.70;99.90;;;;;;4973978;28;20046;-75
2022/12/23 15:57:25;;;;;;;1.50;0.80;;;13.60;99.90;;;;;;4974163;28;20464;-76
2022/12/23 15:59:51;;;;;;;2.08;0.85;;;13.60;99.90;;;;;;4976683;28;20050;-76
2022/12/23 16:02:33;;;;;;;1.35;0.80;;;13.60;99.90;;;;;;4978492;28;20043;-75
2022/12/23 16:05:02;;;;;;;2.78;1.02;;;13.70;99.90;;;;;;4978438;28;20031;-76
2022/12/23 16:07:38;;;;;;;2.88;1.20;;;13.70;99.90;;;;;;4976987;28;20031;-75
2022/12/23 16:10:17;;;;;;;2.45;0.85;;;13.70;99.90;;;;;;4977975;28;20118;-75
2022/12/23 16:12:43;;;;;;;2.45;1.10;;;13.70;99.90;;;;;;4978285;28;20031;-75
2022/12/23 16:15:25;;;;;;;4.82;1.08;;;13.60;99.90;;;;;;4976409;28;20027;-75
2022/12/23 16:17:50;;;;;;;1.65;1.13;;;13.60;99.90;;;;;;4976318;28;20046;-76
2022/12/23 16:20:26;;;;;;;2.43;1.23;;;13.60;99.90;;;;;;4976196;28;20491;-76
2022/12/23 16:22:54;;;;;;;5.82;1.85;;;13.60;99.90;;;;;;4977655;28;20023;-77
2022/12/23 16:25:24;;;;;;;2.75;1.20;;;13.50;99.90;;;;;;4977717;28;20030;-76
2022/12/23 16:28:01;;;;;;;2.17;1.05;;;13.50;99.90;;;;;;4978172;28;20379;-76
2022/12/23 16:30:35;;;;;;;3.80;1.23;;;13.50;99.90;;;;;;4976315;28;20073;-76
2022/12/23 16:33:25;;;;;;;2.28;1.33;;;13.60;99.90;;;;;;4977623;28;20037;-76
2022/12/23 16:35:52;;;;;;;2.35;1.20;;;13.70;99.90;;;;;;4976871;28;20121;-76
2022/12/23 16:38:19;;;;;;;1.35;1.00;;;13.60;99.90;;;;;;4976601;28;20023;-76
2022/12/23 16:40:47;;;;;;;1.60;1.10;;;13.60;99.90;;;;;;4976688;28;20046;-75
2022/12/23 16:43:13;;;;;;;1.73;1.05;;;13.70;99.90;;;;;;4957985;28;20031;-76
2022/12/23 16:45:40;;;;;;;2.05;1.40;;;13.70;99.90;;;;;;4957997;28;20031;-76
2022/12/23 16:48:34;;;;;;;2.35;1.13;;;13.60;99.90;;;;;;4972722;28;20403;-75
2022/12/23 16:51:02;;;;;;;2.53;1.20;;;13.70;99.90;;;;;;4957861;28;20472;-75
2022/12/23 16:53:28;;;;;;;2.83;1.30;;;13.70;99.90;;;;;;4957655;28;20032;-75
2022/12/23 16:55:53;;;;;;;2.13;1.03;;;13.70;99.90;;;;;;4956451;29;20081;-75
2022/12/23 16:58:19;;;;;;;0.90;0.70;;;13.70;99.90;;;;;;4956745;29;20035;-75
2022/12/23 17:00:44;;;;;;;2.47;1.57;;;13.60;99.90;;;;;;4956172;28;20023;-76
2022/12/23 17:03:15;;;;;;;6.63;3.57;;;13.60;99.90;;;;;;4957714;28;20027;-76
2022/12/23 17:05:41;;;;;;;1.70;1.20;;;13.60;99.90;;;;;;4970403;28;20018;-75
2022/12/23 17:08:08;;;;;;;1.80;1.05;;;13.60;99.90;;;;;;4975206;28;20117;-75
2022/12/23 17:10:34;;;;;;;1.67;1.27;;;13.60;99.90;;;;;;4976422;28;20498;-76
2022/12/23 17:13:00;;;;;;;4.07;1.13;;;13.50;99.90;;;;;;4975574;28;20457;-76
2022/12/23 17:15:25;;;;;;;1.40;0.93;;;13.40;99.90;;;;;;4977063;28;20051;-76
2022/12/23 17:17:52;;;;;;;1.23;0.90;;;13.40;99.90;;;;;;4997309;23;20372;-67
2022/12/23 17:20:19;;;;;;;3.78;1.08;;;13.40;99.90;;;;;;4976765;28;20061;-68
2022/12/23 17:22:48;;;;;;;2.63;0.77;;;13.30;99.90;;;;;;4976824;28;20030;-67
2022/12/23 17:25:19;;;;;;;1.45;0.68;;;13.40;99.90;;;;;;4977243;28;20034;-68
2022/12/23 17:27:44;;;;;;;1.05;0.60;;;13.40;99.90;;;;;;4956908;28;20106;-68
2022/12/23 17:30:14;;;;;;;2.00;0.93;;;13.30;99.90;;;;;;4958013;28;20515;-68
2022/12/23 17:32:40;;;;;;;2.25;0.90;;;13.30;99.90;;;;;;4967181;28;20074;-68
2022/12/23 17:35:06;;;;;;;1.23;0.60;;;13.30;99.90;;;;;;4977435;28;20042;-68
2022/12/23 17:37:32;;;;;;;1.50;0.50;;;13.30;99.90;;;;;;4978130;28;20031;-68
2022/12/23 17:39:57;;;;;;;1.03;0.50;;;13.30;99.90;;;;;;4977336;28;20033;-68
2022/12/23 17:42:23;;;;;;;7.43;1.03;;;13.30;99.90;;;;;;4978382;28;20075;-68
2022/12/23 17:44:49;;;;;;;2.28;0.52;;;13.30;99.90;;;;;;4980862;28;20039;-68
2022/12/23 17:47:19;;;;;;;1.37;0.70;;;13.30;99.90;;;;;;4977886;28;20040;-68
2022/12/23 17:49:46;;;;;;;1.13;0.60;;;13.20;99.90;;;;;;4977518;28;20033;-69
2022/12/23 17:52:19;;;;;;;2.35;0.80;;;13.20;99.90;;;;;;4975636;28;20037;-70
2022/12/23 17:54:47;;;;;;;1.38;0.47;;;13.10;99.90;;;;;;4976979;28;20530;-71
2022/12/23 17:57:24;;;;;;;1.80;0.40;;;13.10;99.90;;;;;;4976845;28;20027;-70
2022/12/23 17:59:50;;;;;;;;;;;13.10;99.90;;;;;;4975882;28;20031;-69
2022/12/23 18:02:18;;;;;;;2.72;1.02;;;13.20;99.90;;;;;;4959351;28;19910;-70
2022/12/23 18:04:44;;;;;;;3.58;1.00;;;13.10;99.90;;;;;;4991318;28;20026;-71
2022/12/23 18:07:11;;;;;;;2.00;0.90;;;13.10;99.90;;;;;;4975254;28;20507;-70
2022/12/23 18:09:36;;;;;;;2.78;0.82;;;13.10;99.90;;;;;;4975978;28;20031;-69
2022/12/23 18:12:02;;;;;;;3.20;1.50;;;13.10;99.90;;;;;;4976111;28;20042;-70
2022/12/23 18:14:28;;;;;;;1.55;1.00;;;13.10;99.90;;;;;;4975479;28;20392;-70